Caribe Alliance — WDC9383 — position and weather

sailwx.info

Track history (hours):
 
Tides and Currents Weather Stations Pressure Air Temp Water Temp Dewpoint Dewpoint Depression Visibility Wind Speed Wind Dir Waves Ship Positions

Caribe Alliance

Owner: Gulf Caribe Maritime, Redondo Beach, CA. More information available from US FCC via Universal Licensing System and Coast Guard Vessel Documentation Center.

Last reported at 2017-Jul-23 05:26 UTC. Time now 2017-Jul-23 12:36 UTC.
Position N 33°51' W 118°24'.

Length 19 m; draft 3.3 m.

Type: Port tender. MMSI: 367101530.

Date/timePositionNaut miles runAvg speedWind from/ knotsBaromVisibWave heightAir tempDewpointWater temp
2017-Jul-23 05:26N 33°51' W 118°24'0 0.0
2017-Jul-22 23:20N 33°51' W 118°24'  
2017-Jul-20 14:00N 33°54' W 118°27'0 0.3
2017-Jul-20 12:51N 33°54' W 118°27'0 0.3
2017-Jul-20 12:10N 33°54' W 118°27'0 0.3
2017-Jul-20 12:00N 33°54' W 118°27'0 0.3
2017-Jul-20 11:16N 33°54' W 118°27'0 0.0
2017-Jul-20 09:49N 33°54' W 118°27'0 0.0
2017-Jul-20 00:07N 33°54' W 118°27'0 0.0
2017-Jul-19 23:49N 33°54' W 118°27'0 0.0
2017-Jul-19 23:28N 33°54' W 118°27'0 0.3
2017-Jul-19 23:00N 33°54' W 118°27'0 0.1
2017-Jul-19 21:29N 33°54' W 118°27'0 0.0
2017-Jul-19 21:00N 33°54' W 118°27'0 0.2
2017-Jul-19 20:20N 33°54' W 118°27'3 2.4
2017-Jul-19 18:59N 33°52' W 118°30'4 6.2
2017-Jul-19 18:23N 33°51' W 118°26'1 0.2
2017-Jul-19 11:14N 33°51' W 118°24'210.2
2017-Jul-19 11:00N 33°53' W 118°26'2 2.2
2017-Jul-19 10:10N 33°54' W 118°27'0 0.0
2017-Jul-19 09:53N 33°54' W 118°27'0 0.2
2017-Jul-19 09:29N 33°54' W 118°27'0 0.2
2017-Jul-19 08:31N 33°54' W 118°27'0 2.1
2017-Jul-19 08:28N 33°54' W 118°27'0 0.1
2017-Jul-19 05:12N 33°54' W 118°27'0 0.0
2017-Jul-18 23:21N 33°54' W 118°27'0 0.0
2017-Jul-18 22:54N 33°54' W 118°27'0 0.0
2017-Jul-18 22:30N 33°54' W 118°27'0 0.0
2017-Jul-18 21:39N 33°54' W 118°27'0 0.0
2017-Jul-18 21:15N 33°54' W 118°27'0 0.0
2017-Jul-18 21:00N 33°54' W 118°27'0 0.0
2017-Jul-18 20:27N 33°54' W 118°27'0 0.0
2017-Jul-18 16:45N 33°54' W 118°27'0 0.0
2017-Jul-18 16:30N 33°54' W 118°27'0 0.0
2017-Jul-18 13:30N 33°54' W 118°27'0 0.0
2017-Jul-18 13:00N 33°54' W 118°27'0 0.0
2017-Jul-18 12:21N 33°54' W 118°27'0 0.1
2017-Jul-18 12:00N 33°54' W 118°27'0 0.0
2017-Jul-18 11:27N 33°54' W 118°27'0 0.0
2017-Jul-18 10:51N 33°54' W 118°27'0 0.0
2017-Jul-18 10:18N 33°54' W 118°27'0 0.0
2017-Jul-18 09:42N 33°54' W 118°27'  
2017-Jul-15 21:55N 33°51' W 118°24'0 0.5
2017-Jul-15 21:30N 33°51' W 118°24'1 2.1
2017-Jul-15 21:00N 33°52' W 118°25'3 1.0
2017-Jul-15 17:31N 33°54' W 118°27'0 0.0
2017-Jul-15 17:22N 33°54' W 118°27'0 0.0
2017-Jul-15 14:31N 33°54' W 118°27'0 0.0
2017-Jul-15 12:10N 33°54' W 118°27'0 0.0
2017-Jul-15 09:43N 33°54' W 118°27'0 0.0
2017-Jul-15 07:01N 33°54' W 118°27'0 0.0
2017-Jul-15 06:58N 33°54' W 118°27'0 0.0
2017-Jul-15 05:01N 33°54' W 118°27'0 0.0
2017-Jul-15 01:58N 33°54' W 118°27'0 0.0
2017-Jul-14 12:19N 33°54' W 118°27'0 0.0
2017-Jul-14 11:49N 33°54' W 118°27'0 0.0
2017-Jul-14 11:25N 33°54' W 118°27'0 0.0
2017-Jul-14 10:55N 33°54' W 118°27'0 0.0
2017-Jul-14 10:19N 33°54' W 118°27'0 0.0
2017-Jul-14 06:37N 33°54' W 118°27'0 0.0
2017-Jul-14 06:25N 33°54' W 118°27'0 0.0
2017-Jul-14 05:55N 33°54' W 118°27'0 0.0
2017-Jul-14 01:31N 33°54' W 118°27'0 0.1
2017-Jul-14 01:25N 33°54' W 118°27'0 0.0
2017-Jul-14 00:55N 33°54' W 118°27'0 0.0
2017-Jul-14 00:01N 33°54' W 118°27'  
Track history (hours):
 
Tides and Currents Weather Stations Pressure Air Temp Water Temp Dewpoint Dewpoint Depression Visibility Wind Speed Wind Dir Waves Ship Positions

Caribe Alliance

Owner: Gulf Caribe Maritime, Redondo Beach, CA. More information available from US FCC via Universal Licensing System and Coast Guard Vessel Documentation Center.

Last reported at 2017-Jul-23 05:26 UTC. Time now 2017-Jul-23 12:36 UTC.
Position N 33°51' W 118°24'.

Length 19 m; draft 3.3 m.

Type: Port tender. MMSI: 367101530.

Date/timePositionNaut miles runAvg speedWind from/ knotsBaromVisibWave heightAir tempDewpointWater temp
2017-Jul-23 05:26N 33°51' W 118°24'0 0.0
2017-Jul-22 23:20N 33°51' W 118°24'  
2017-Jul-20 14:00N 33°54' W 118°27'0 0.3
2017-Jul-20 12:51N 33°54' W 118°27'0 0.3
2017-Jul-20 12:10N 33°54' W 118°27'0 0.3
2017-Jul-20 12:00N 33°54' W 118°27'0 0.3
2017-Jul-20 11:16N 33°54' W 118°27'0 0.0
2017-Jul-20 09:49N 33°54' W 118°27'0 0.0
2017-Jul-20 00:07N 33°54' W 118°27'0 0.0
2017-Jul-19 23:49N 33°54' W 118°27'0 0.0
2017-Jul-19 23:28N 33°54' W 118°27'0 0.3
2017-Jul-19 23:00N 33°54' W 118°27'0 0.1
2017-Jul-19 21:29N 33°54' W 118°27'0 0.0
2017-Jul-19 21:00N 33°54' W 118°27'0 0.2
2017-Jul-19 20:20N 33°54' W 118°27'3 2.4
2017-Jul-19 18:59N 33°52' W 118°30'4 6.2
2017-Jul-19 18:23N 33°51' W 118°26'1 0.2
2017-Jul-19 11:14N 33°51' W 118°24'210.2
2017-Jul-19 11:00N 33°53' W 118°26'2 2.2
2017-Jul-19 10:10N 33°54' W 118°27'0 0.0
2017-Jul-19 09:53N 33°54' W 118°27'0 0.2
2017-Jul-19 09:29N 33°54' W 118°27'0 0.2
2017-Jul-19 08:31N 33°54' W 118°27'0 2.1
2017-Jul-19 08:28N 33°54' W 118°27'0 0.1
2017-Jul-19 05:12N 33°54' W 118°27'0 0.0
2017-Jul-18 23:21N 33°54' W 118°27'0 0.0
2017-Jul-18 22:54N 33°54' W 118°27'0 0.0
2017-Jul-18 22:30N 33°54' W 118°27'0 0.0
2017-Jul-18 21:39N 33°54' W 118°27'0 0.0
2017-Jul-18 21:15N 33°54' W 118°27'0 0.0
2017-Jul-18 21:00N 33°54' W 118°27'0 0.0
2017-Jul-18 20:27N 33°54' W 118°27'0 0.0
2017-Jul-18 16:45N 33°54' W 118°27'0 0.0
2017-Jul-18 16:30N 33°54' W 118°27'0 0.0
2017-Jul-18 13:30N 33°54' W 118°27'0 0.0
2017-Jul-18 13:00N 33°54' W 118°27'0 0.0
2017-Jul-18 12:21N 33°54' W 118°27'0 0.1
2017-Jul-18 12:00N 33°54' W 118°27'0 0.0
2017-Jul-18 11:27N 33°54' W 118°27'0 0.0
2017-Jul-18 10:51N 33°54' W 118°27'0 0.0
2017-Jul-18 10:18N 33°54' W 118°27'0 0.0
2017-Jul-18 09:42N 33°54' W 118°27'  
2017-Jul-15 21:55N 33°51' W 118°24'0 0.5
2017-Jul-15 21:30N 33°51' W 118°24'1 2.1
2017-Jul-15 21:00N 33°52' W 118°25'3 1.0
2017-Jul-15 17:31N 33°54' W 118°27'0 0.0
2017-Jul-15 17:22N 33°54' W 118°27'0 0.0
2017-Jul-15 14:31N 33°54' W 118°27'0 0.0
2017-Jul-15 12:10N 33°54' W 118°27'0 0.0
2017-Jul-15 09:43N 33°54' W 118°27'0 0.0
2017-Jul-15 07:01N 33°54' W 118°27'0 0.0
2017-Jul-15 06:58N 33°54' W 118°27'0 0.0
2017-Jul-15 05:01N 33°54' W 118°27'0 0.0
2017-Jul-15 01:58N 33°54' W 118°27'0 0.0
2017-Jul-14 12:19N 33°54' W 118°27'0 0.0
2017-Jul-14 11:49N 33°54' W 118°27'0 0.0
2017-Jul-14 11:25N 33°54' W 118°27'0 0.0
2017-Jul-14 10:55N 33°54' W 118°27'0 0.0
2017-Jul-14 10:19N 33°54' W 118°27'0 0.0
2017-Jul-14 06:37N 33°54' W 118°27'0 0.0
2017-Jul-14 06:25N 33°54' W 118°27'0 0.0
2017-Jul-14 05:55N 33°54' W 118°27'0 0.0
2017-Jul-14 01:31N 33°54' W 118°27'0 0.1
2017-Jul-14 01:25N 33°54' W 118°27'0 0.0
2017-Jul-14 00:55N 33°54' W 118°27'0 0.0
2017-Jul-14 00:01N 33°54' W 118°27'  

Dump ship's entire track history